createdAt,value
2017-11-15T00:01:50.210Z,12.07
2017-11-15T00:04:16.506Z,11.98
2017-11-15T00:06:42.819Z,11.96
2017-11-15T00:09:09.042Z,11.94
2017-11-15T00:11:35.291Z,12.02
2017-11-15T00:14:01.536Z,12.04
2017-11-15T00:16:27.780Z,11.96
2017-11-15T00:18:54.014Z,11.89
2017-11-15T00:21:20.265Z,11.93
2017-11-15T00:23:46.479Z,11.95
2017-11-15T00:26:12.757Z,11.91
2017-11-15T00:28:39.022Z,11.85
2017-11-15T00:31:05.349Z,11.72
2017-11-15T00:33:31.597Z,11.72
2017-11-15T00:35:57.886Z,11.64
2017-11-15T00:38:24.109Z,11.60
2017-11-15T00:40:50.315Z,11.55
2017-11-15T00:43:16.585Z,11.44
2017-11-15T00:45:42.824Z,11.38
2017-11-15T00:48:09.030Z,11.40
2017-11-15T00:50:35.303Z,11.41
2017-11-15T00:53:01.525Z,11.38
2017-11-15T00:55:27.768Z,11.44
2017-11-15T00:57:54.022Z,11.49
2017-11-15T01:00:20.231Z,11.48
2017-11-15T01:02:46.454Z,11.49
2017-11-15T01:05:12.757Z,11.46
2017-11-15T01:07:38.992Z,11.39
2017-11-15T01:10:05.245Z,11.48
2017-11-15T01:12:31.556Z,11.52
2017-11-15T01:14:57.800Z,11.51
2017-11-15T01:17:24.048Z,11.48
2017-11-15T01:19:50.325Z,11.42
2017-11-15T01:22:16.560Z,11.44
2017-11-15T01:24:42.801Z,11.43
2017-11-15T01:27:09.112Z,11.38
2017-11-15T01:29:35.347Z,11.40
2017-11-15T01:32:01.589Z,11.36
2017-11-15T01:34:27.878Z,11.32
2017-11-15T01:36:54.113Z,11.37
2017-11-15T01:39:20.348Z,11.33
2017-11-15T01:41:46.717Z,11.25
2017-11-15T01:44:12.953Z,11.05
2017-11-15T01:46:39.205Z,11.05
2017-11-15T01:49:05.498Z,11.12
2017-11-15T01:51:31.749Z,11.02
2017-11-15T01:53:57.999Z,10.94
2017-11-15T01:56:24.277Z,10.92
2017-11-15T01:58:50.526Z,10.87
2017-11-15T02:01:16.779Z,10.79
2017-11-15T02:03:43.065Z,10.74
2017-11-15T02:06:09.309Z,10.74
2017-11-15T02:08:35.556Z,10.74
2017-11-15T02:11:01.927Z,10.69
2017-11-15T02:13:28.162Z,10.73
2017-11-15T02:15:54.396Z,10.77
2017-11-15T02:18:20.687Z,10.79
2017-11-15T02:20:46.930Z,10.79
2017-11-15T02:23:13.196Z,10.83
2017-11-15T02:25:39.480Z,10.77
2017-11-15T02:28:05.779Z,10.75
2017-11-15T02:30:32.014Z,10.69
2017-11-15T02:32:58.344Z,10.70
2017-11-15T02:35:24.643Z,10.76
2017-11-15T02:37:50.983Z,10.71
2017-11-15T02:40:17.272Z,10.69
2017-11-15T02:42:43.515Z,10.75
2017-11-15T02:45:09.761Z,10.77
2017-11-15T02:47:36.177Z,10.80
2017-11-15T02:50:02.438Z,10.83
2017-11-15T02:52:28.690Z,10.91
2017-11-15T02:54:55.027Z,10.94
2017-11-15T02:57:21.275Z,10.95
2017-11-15T02:59:47.548Z,10.95
2017-11-15T03:02:13.844Z,10.88
2017-11-15T03:04:40.088Z,10.99
2017-11-15T03:07:06.333Z,10.98
2017-11-15T03:09:32.603Z,10.96
2017-11-15T03:11:58.858Z,10.95
2017-11-15T03:14:25.097Z,10.91
2017-11-15T03:16:51.388Z,10.92
2017-11-15T03:19:17.632Z,10.93
2017-11-15T03:21:43.878Z,10.83
2017-11-15T03:24:10.163Z,10.74
2017-11-15T03:26:36.466Z,10.68
2017-11-15T03:29:02.692Z,10.76
2017-11-15T03:31:28.990Z,10.86
2017-11-15T03:33:55.253Z,10.79
2017-11-15T03:36:21.492Z,10.83
2017-11-15T03:38:47.775Z,10.68
2017-11-15T03:41:14.013Z,10.67
2017-11-15T03:43:40.237Z,10.66
2017-11-15T03:46:06.558Z,10.71
2017-11-15T03:48:32.807Z,10.66
2017-11-15T03:50:59.045Z,10.69
2017-11-15T03:53:25.308Z,10.60
2017-11-15T03:55:51.554Z,10.73
2017-11-15T03:58:17.801Z,10.80
2017-11-15T04:00:44.088Z,10.71
2017-11-15T04:03:10.335Z,10.74
2017-11-15T04:05:36.561Z,10.74
2017-11-15T04:08:02.879Z,10.77
2017-11-15T04:10:29.102Z,10.84
2017-11-15T04:12:55.365Z,10.85
2017-11-15T04:15:21.652Z,10.84
2017-11-15T04:17:47.908Z,10.86
2017-11-15T04:20:14.160Z,10.91
2017-11-15T04:22:40.597Z,10.82
2017-11-15T04:25:06.850Z,10.84
2017-11-15T04:27:33.087Z,10.94
2017-11-15T04:29:59.371Z,10.91
2017-11-15T04:32:25.628Z,10.95
2017-11-15T04:34:51.876Z,10.98
2017-11-15T04:37:18.185Z,10.97
2017-11-15T04:39:44.412Z,10.90
2017-11-15T04:42:10.654Z,10.88
2017-11-15T04:44:36.933Z,10.89
2017-11-15T04:47:03.177Z,10.92
2017-11-15T04:49:29.418Z,10.86
2017-11-15T04:51:55.701Z,10.82
2017-11-15T04:54:21.953Z,10.75
2017-11-15T04:56:48.188Z,10.77
2017-11-15T04:59:14.461Z,10.72
2017-11-15T05:01:40.707Z,10.70
2017-11-15T05:04:06.970Z,10.66
2017-11-15T05:06:33.398Z,10.52
2017-11-15T05:08:59.674Z,10.56
2017-11-15T05:11:25.921Z,10.48
2017-11-15T05:13:52.196Z,10.47
2017-11-15T05:16:18.426Z,10.34
2017-11-15T05:18:44.667Z,10.31
2017-11-15T05:21:10.956Z,10.29
2017-11-15T05:23:37.222Z,10.25
2017-11-15T05:26:03.479Z,10.20
2017-11-15T05:28:29.764Z,10.12
2017-11-15T05:30:56.031Z,10.18
2017-11-15T05:33:22.277Z,10.17
2017-11-15T05:35:48.588Z,10.16
2017-11-15T05:38:14.845Z,10.08
2017-11-15T05:40:41.079Z,10.05
2017-11-15T05:43:07.381Z,10.06
2017-11-15T05:45:33.758Z,9.68
2017-11-15T05:48:00.021Z,9.91
2017-11-15T05:50:26.277Z,9.87
2017-11-15T05:52:52.501Z,9.87
2017-11-15T05:55:18.752Z,9.80
2017-11-15T05:57:45.056Z,9.81
2017-11-15T06:00:11.352Z,9.85
2017-11-15T06:02:37.587Z,9.90
2017-11-15T06:05:03.856Z,9.81
2017-11-15T06:07:30.095Z,9.75
2017-11-15T06:09:56.397Z,9.66
2017-11-15T06:12:22.689Z,9.64
2017-11-15T06:14:48.948Z,9.67
2017-11-15T06:17:15.211Z,9.66
2017-11-15T06:19:41.590Z,9.69
2017-11-15T06:22:07.799Z,9.76
2017-11-15T06:24:34.039Z,9.76
2017-11-15T06:27:00.323Z,9.83
2017-11-15T06:29:26.636Z,9.83
2017-11-15T06:31:52.894Z,9.83
2017-11-15T06:34:19.168Z,9.87
2017-11-15T06:36:45.403Z,9.94
2017-11-15T06:39:11.649Z,9.92
2017-11-15T06:41:37.913Z,9.88
2017-11-15T06:44:04.158Z,9.85
2017-11-15T06:46:30.403Z,9.86
2017-11-15T06:48:56.686Z,9.82
2017-11-15T06:51:22.905Z,9.93
2017-11-15T06:53:49.323Z,9.90
2017-11-15T06:56:15.602Z,9.99
2017-11-15T06:58:41.855Z,10.01
2017-11-15T07:01:08.159Z,10.02
2017-11-15T07:03:34.445Z,9.98
2017-11-15T07:06:00.689Z,9.86
2017-11-15T07:08:26.914Z,9.86
2017-11-15T07:10:53.239Z,9.93
2017-11-15T07:13:19.498Z,10.08
2017-11-15T07:15:45.721Z,10.14
2017-11-15T07:18:12.015Z,10.12
2017-11-15T07:20:38.248Z,10.01
2017-11-15T07:23:04.479Z,10.01
2017-11-15T07:25:30.744Z,10.06
2017-11-15T07:27:56.982Z,10.18
2017-11-15T07:30:23.217Z,10.25
2017-11-15T07:32:49.493Z,10.32
2017-11-15T07:35:15.706Z,10.29
2017-11-15T07:37:41.965Z,10.35
2017-11-15T07:40:08.287Z,10.40
2017-11-15T07:42:34.518Z,10.43
2017-11-15T07:45:00.768Z,10.50
2017-11-15T07:47:27.051Z,10.62
2017-11-15T07:49:53.383Z,10.53
2017-11-15T07:52:19.621Z,10.59
2017-11-15T07:54:45.893Z,10.67
2017-11-15T07:57:12.134Z,10.68
2017-11-15T07:59:38.369Z,10.73
2017-11-15T08:02:04.658Z,10.67
2017-11-15T08:04:30.902Z,10.76
2017-11-15T08:06:57.151Z,10.86
2017-11-15T08:09:23.436Z,10.83
2017-11-15T08:11:49.884Z,10.83
2017-11-15T08:14:16.119Z,10.86
2017-11-15T08:16:42.378Z,11.03
2017-11-15T08:19:08.609Z,11.04
2017-11-15T08:21:34.847Z,11.13
2017-11-15T08:24:01.114Z,11.17
2017-11-15T08:26:27.341Z,11.25
2017-11-15T08:28:53.616Z,11.22
2017-11-15T08:31:19.906Z,11.04
2017-11-15T08:33:46.150Z,11.00
2017-11-15T08:36:12.390Z,11.16
2017-11-15T08:38:38.670Z,11.29
2017-11-15T08:41:05.037Z,11.30
2017-11-15T08:43:31.283Z,11.29
2017-11-15T08:45:57.571Z,11.34
2017-11-15T08:48:23.807Z,11.37
2017-11-15T08:50:50.059Z,11.40
2017-11-15T08:53:16.333Z,11.42
2017-11-15T08:55:42.563Z,11.51
2017-11-15T08:58:08.783Z,11.61
2017-11-15T09:00:35.090Z,11.63
2017-11-15T09:03:01.340Z,11.61
2017-11-15T09:05:27.571Z,11.41
2017-11-15T09:07:53.831Z,11.34
2017-11-15T09:10:20.064Z,11.25
2017-11-15T09:12:46.315Z,11.14
2017-11-15T09:15:12.657Z,10.86
2017-11-15T09:17:38.883Z,10.83
2017-11-15T09:20:05.116Z,10.83
2017-11-15T09:22:31.382Z,10.88
2017-11-15T09:24:57.766Z,10.94
2017-11-15T09:27:24.013Z,11.10
2017-11-15T09:29:50.291Z,11.17
2017-11-15T09:32:16.516Z,11.23
2017-11-15T09:34:42.764Z,11.32
2017-11-15T09:37:09.027Z,11.27
2017-11-15T09:39:35.255Z,11.29
2017-11-15T09:42:01.500Z,11.31
2017-11-15T09:44:27.820Z,11.17
2017-11-15T09:46:54.052Z,11.05
2017-11-15T09:49:20.286Z,11.11
2017-11-15T09:51:46.682Z,11.19
2017-11-15T09:54:12.922Z,11.31
2017-11-15T09:56:39.177Z,11.43
2017-11-15T09:59:05.447Z,11.35
2017-11-15T10:01:31.680Z,11.48
2017-11-15T10:03:57.915Z,11.48
2017-11-15T10:06:24.188Z,11.44
2017-11-15T10:08:50.426Z,11.45
2017-11-15T10:11:16.681Z,11.43
2017-11-15T10:13:42.988Z,11.35
2017-11-15T10:16:09.237Z,11.36
2017-11-15T10:18:35.482Z,11.29
2017-11-15T10:21:01.776Z,11.39
2017-11-15T10:23:28.049Z,11.38
2017-11-15T10:25:54.291Z,11.36
2017-11-15T10:28:20.566Z,11.31
2017-11-15T10:30:46.800Z,11.29
2017-11-15T10:33:13.046Z,11.21
2017-11-15T10:35:39.323Z,11.14
2017-11-15T10:38:05.579Z,11.10
2017-11-15T10:40:31.831Z,10.98
2017-11-15T10:42:58.119Z,11.02
2017-11-15T10:45:24.362Z,11.09
2017-11-15T10:47:50.591Z,11.04
2017-11-15T10:50:16.853Z,11.18
2017-11-15T10:52:43.087Z,11.15
2017-11-15T10:55:09.337Z,11.17
2017-11-15T10:57:35.628Z,11.16
2017-11-15T11:00:01.849Z,11.24
2017-11-15T11:02:28.084Z,11.22
2017-11-15T11:04:54.354Z,11.16
2017-11-15T11:07:21.150Z,11.11
2017-11-15T11:09:48.417Z,10.94
2017-11-15T11:12:15.923Z,11.01
2017-11-15T11:14:42.978Z,11.11
2017-11-15T11:17:09.368Z,11.08
2017-11-15T11:19:35.631Z,11.00
2017-11-15T11:22:01.873Z,10.86
2017-11-15T11:24:28.110Z,10.87
2017-11-15T11:26:54.388Z,11.09
2017-11-15T11:29:20.626Z,11.28
2017-11-15T11:31:46.864Z,11.32
2017-11-15T11:34:13.146Z,11.36
2017-11-15T11:36:39.401Z,11.27
2017-11-15T11:39:05.638Z,11.05
2017-11-15T11:41:31.894Z,11.07
2017-11-15T11:43:58.129Z,11.00
2017-11-15T11:46:24.390Z,10.99
2017-11-15T11:48:50.670Z,11.05
2017-11-15T11:51:16.937Z,11.06
2017-11-15T11:53:43.158Z,11.15
2017-11-15T11:56:09.428Z,11.22
2017-11-15T11:58:35.675Z,11.13
2017-11-15T12:01:01.919Z,11.04
2017-11-15T12:03:28.211Z,10.92
2017-11-15T12:05:54.453Z,10.72
2017-11-15T12:08:20.683Z,10.73
2017-11-15T12:10:46.968Z,10.75
2017-11-15T12:13:13.205Z,10.75
2017-11-15T12:15:39.446Z,10.77
2017-11-15T12:18:05.710Z,10.80
2017-11-15T12:20:31.960Z,10.83
2017-11-15T12:22:58.215Z,10.74
2017-11-15T12:25:24.507Z,10.82
2017-11-15T12:27:50.747Z,10.82
2017-11-15T12:30:16.983Z,10.78
2017-11-15T12:32:43.318Z,10.72
2017-11-15T12:35:09.553Z,10.61
2017-11-15T12:37:35.800Z,10.48
2017-11-15T12:40:02.088Z,10.42
2017-11-15T12:42:28.454Z,10.41
2017-11-15T12:44:54.713Z,10.42
2017-11-15T12:47:20.980Z,10.40
2017-11-15T12:49:47.227Z,10.44
2017-11-15T12:52:13.486Z,10.44
2017-11-15T12:54:39.763Z,10.37
2017-11-15T12:57:06.046Z,10.30
2017-11-15T12:59:32.320Z,10.30
2017-11-15T13:01:58.595Z,10.39
2017-11-15T13:04:24.823Z,10.46
2017-11-15T13:06:51.390Z,10.50
2017-11-15T13:09:17.669Z,10.39
2017-11-15T13:11:43.943Z,10.40
2017-11-15T13:14:10.177Z,10.50
2017-11-15T13:16:36.558Z,10.61
2017-11-15T13:19:02.833Z,10.62
2017-11-15T13:21:29.058Z,10.62
2017-11-15T13:23:55.344Z,10.63
2017-11-15T13:26:21.578Z,10.63
2017-11-15T13:28:47.893Z,10.70
2017-11-15T13:31:14.181Z,10.71
2017-11-15T13:33:40.408Z,10.70
2017-11-15T13:36:06.627Z,10.63
2017-11-15T13:38:32.888Z,10.49
2017-11-15T13:40:59.464Z,10.48
2017-11-15T13:43:25.675Z,10.49
2017-11-15T13:45:51.972Z,10.54
2017-11-15T13:48:18.190Z,10.53
2017-11-15T13:50:44.435Z,10.47
2017-11-15T13:53:10.717Z,10.41
2017-11-15T13:55:36.961Z,10.35
2017-11-15T13:58:03.201Z,10.36
2017-11-15T14:00:29.479Z,10.27
2017-11-15T14:02:55.712Z,10.23
2017-11-15T14:05:21.981Z,10.29
2017-11-15T14:07:48.335Z,10.26
2017-11-15T14:10:14.554Z,10.27
2017-11-15T14:12:40.790Z,10.21
2017-11-15T14:15:07.079Z,10.20
2017-11-15T14:17:33.299Z,10.22
2017-11-15T14:19:59.520Z,10.10
2017-11-15T14:22:25.788Z,10.10
2017-11-15T14:24:52.028Z,10.10
2017-11-15T14:27:18.267Z,10.04
2017-11-15T14:29:44.571Z,9.97
2017-11-15T14:32:10.794Z,9.98
2017-11-15T14:34:37.031Z,10.01
2017-11-15T14:37:03.301Z,10.06
2017-11-15T14:39:29.561Z,10.13
2017-11-15T14:41:55.802Z,10.11
2017-11-15T14:44:22.077Z,10.09
2017-11-15T14:46:48.299Z,10.12
2017-11-15T14:49:14.537Z,10.12
2017-11-15T14:51:40.800Z,10.07
2017-11-15T14:54:07.035Z,10.12
2017-11-15T14:56:33.293Z,10.10
2017-11-15T14:58:59.786Z,10.14
2017-11-15T15:01:26.031Z,10.11
2017-11-15T15:03:52.264Z,10.15
2017-11-15T15:06:18.688Z,10.08
2017-11-15T15:08:45.320Z,10.04
2017-11-15T15:11:11.962Z,10.02
2017-11-15T15:13:38.212Z,10.01
2017-11-15T15:16:04.612Z,10.03
2017-11-15T15:18:30.896Z,10.03
2017-11-15T15:20:57.172Z,9.99
2017-11-15T15:23:23.412Z,9.91
2017-11-15T15:25:49.729Z,9.93
2017-11-15T15:28:15.992Z,9.94
2017-11-15T15:30:42.216Z,10.03
2017-11-15T15:33:08.616Z,9.98
2017-11-15T15:35:34.879Z,9.98
2017-11-15T15:38:01.111Z,9.98
2017-11-15T15:40:27.342Z,9.98
2017-11-15T15:42:53.617Z,9.99
2017-11-15T15:45:19.861Z,9.97
2017-11-15T15:47:46.102Z,9.91
2017-11-15T15:50:12.357Z,9.91
2017-11-15T15:52:38.650Z,9.97
2017-11-15T15:55:04.882Z,9.94
2017-11-15T15:57:31.159Z,9.95
2017-11-15T15:59:57.395Z,9.96
2017-11-15T16:02:23.634Z,9.99
2017-11-15T16:04:49.919Z,9.99
2017-11-15T16:07:16.168Z,9.97
2017-11-15T16:09:42.466Z,9.94
2017-11-15T16:12:08.750Z,10.05
2017-11-15T16:14:34.976Z,10.10
2017-11-15T16:17:01.196Z,10.06
2017-11-15T16:19:27.469Z,10.08
2017-11-15T16:21:53.724Z,10.06
2017-11-15T16:24:19.969Z,10.03
2017-11-15T16:26:46.261Z,10.04
2017-11-15T16:29:12.494Z,10.09
2017-11-15T16:31:38.717Z,10.10
2017-11-15T16:34:04.965Z,10.13
2017-11-15T16:36:31.206Z,10.11
2017-11-15T16:38:57.502Z,10.11
2017-11-15T16:41:23.768Z,10.12
2017-11-15T16:43:50.001Z,10.15
2017-11-15T16:46:16.226Z,10.17
2017-11-15T16:48:42.502Z,10.13
2017-11-15T16:51:08.734Z,10.12
2017-11-15T16:53:34.977Z,10.15
2017-11-15T16:56:01.264Z,10.13
2017-11-15T16:58:27.481Z,10.10
2017-11-15T17:00:53.695Z,10.14
2017-11-15T17:03:19.955Z,10.10
2017-11-15T17:05:46.194Z,10.02
2017-11-15T17:08:12.436Z,10.00
2017-11-15T17:10:38.721Z,10.01
2017-11-15T17:13:04.931Z,10.03
2017-11-15T17:15:31.161Z,10.09
2017-11-15T17:17:57.472Z,10.15
2017-11-15T17:20:23.695Z,10.10
2017-11-15T17:22:49.915Z,10.08
2017-11-15T17:25:16.181Z,10.03
2017-11-15T17:27:42.402Z,9.97
2017-11-15T17:30:08.809Z,10.04
2017-11-15T17:32:35.073Z,10.08
2017-11-15T17:35:01.298Z,10.13
2017-11-15T17:37:27.545Z,10.18
2017-11-15T17:39:53.830Z,10.16
2017-11-15T17:42:20.051Z,10.14
2017-11-15T17:44:46.283Z,10.15
2017-11-15T17:47:12.546Z,10.16
2017-11-15T17:49:38.767Z,10.20
2017-11-15T17:52:04.969Z,10.26
2017-11-15T17:54:31.234Z,10.26
2017-11-15T17:56:57.465Z,10.19
2017-11-15T17:59:23.693Z,10.18
2017-11-15T18:01:49.966Z,10.22
2017-11-15T18:04:16.208Z,10.28
2017-11-15T18:06:42.426Z,10.31
2017-11-15T18:09:09.162Z,10.30
2017-11-15T18:11:35.393Z,10.31
2017-11-15T18:14:01.631Z,10.27
2017-11-15T18:16:27.888Z,10.08
2017-11-15T18:18:54.106Z,10.14
2017-11-15T18:21:20.330Z,10.16
2017-11-15T18:23:46.589Z,10.18
2017-11-15T18:26:12.802Z,10.26
2017-11-15T18:28:39.032Z,10.27
2017-11-15T18:31:05.307Z,10.20
2017-11-15T18:33:31.561Z,10.25
2017-11-15T18:35:57.798Z,10.27
2017-11-15T18:38:24.055Z,10.31
2017-11-15T18:40:50.278Z,10.34
2017-11-15T18:43:16.509Z,10.21
2017-11-15T18:45:42.778Z,10.30
2017-11-15T18:48:08.995Z,10.31
2017-11-15T18:50:35.216Z,10.34
2017-11-15T18:53:01.486Z,10.41
2017-11-15T18:55:27.731Z,10.44
2017-11-15T18:57:53.968Z,10.45
2017-11-15T19:00:20.240Z,10.43
2017-11-15T19:02:46.463Z,10.33
2017-11-15T19:05:12.687Z,10.30
2017-11-15T19:07:38.955Z,10.36
2017-11-15T19:10:05.179Z,10.37
2017-11-15T19:12:31.417Z,10.38
2017-11-15T19:14:57.868Z,10.40
2017-11-15T19:17:24.101Z,10.40
2017-11-15T19:19:50.324Z,10.42
2017-11-15T19:22:16.584Z,10.38
2017-11-15T19:24:42.817Z,10.36
2017-11-15T19:27:09.030Z,10.42
2017-11-15T19:29:35.296Z,10.42
2017-11-15T19:32:01.534Z,10.44
2017-11-15T19:34:27.768Z,10.36
2017-11-15T19:36:54.018Z,10.34
2017-11-15T19:39:20.368Z,10.34
2017-11-15T19:41:46.610Z,10.37
2017-11-15T19:44:12.883Z,10.35
2017-11-15T19:46:39.121Z,10.34
2017-11-15T19:49:05.345Z,10.38
2017-11-15T19:51:31.610Z,10.36
2017-11-15T19:53:57.828Z,10.36
2017-11-15T19:56:24.054Z,10.40
2017-11-15T19:58:50.315Z,10.31
2017-11-15T20:01:16.539Z,10.37
2017-11-15T20:03:42.767Z,10.45
2017-11-15T20:06:09.031Z,10.45
2017-11-15T20:08:35.270Z,10.44
2017-11-15T20:11:01.560Z,10.45
2017-11-15T20:13:27.834Z,10.45
2017-11-15T20:15:54.060Z,10.45
2017-11-15T20:18:20.301Z,10.42
2017-11-15T20:20:46.578Z,10.36
2017-11-15T20:23:12.815Z,10.41
2017-11-15T20:25:39.067Z,10.42
2017-11-15T20:28:05.340Z,10.43
2017-11-15T20:30:31.569Z,10.38
2017-11-15T20:32:57.823Z,10.39
2017-11-15T20:35:24.085Z,10.42
2017-11-15T20:37:50.328Z,10.45
2017-11-15T20:40:16.727Z,10.38
2017-11-15T20:42:43.032Z,10.28
2017-11-15T20:45:09.293Z,10.28
2017-11-15T20:47:35.531Z,10.29
2017-11-15T20:50:01.800Z,10.32
2017-11-15T20:52:28.022Z,10.37
2017-11-15T20:54:54.261Z,10.34
2017-11-15T20:57:20.540Z,10.30
2017-11-15T20:59:46.788Z,10.21
2017-11-15T21:02:13.014Z,10.28
2017-11-15T21:04:39.275Z,10.31
2017-11-15T21:07:05.516Z,10.36
2017-11-15T21:09:31.760Z,10.35
2017-11-15T21:11:58.054Z,10.35
2017-11-15T21:14:24.301Z,10.35
2017-11-15T21:16:50.750Z,10.36
2017-11-15T21:19:17.036Z,10.40
2017-11-15T21:21:43.510Z,10.44
2017-11-15T21:24:09.739Z,10.43
2017-11-15T21:26:36.009Z,10.46
2017-11-15T21:29:02.246Z,10.48
2017-11-15T21:31:28.504Z,10.48
2017-11-15T21:33:54.768Z,10.47
2017-11-15T21:36:21.092Z,10.50
2017-11-15T21:38:47.312Z,10.49
2017-11-15T21:41:13.590Z,10.44
2017-11-15T21:43:39.829Z,10.44
2017-11-15T21:46:06.091Z,10.50
2017-11-15T21:48:32.350Z,10.39
2017-11-15T21:50:58.585Z,10.38
2017-11-15T21:53:24.819Z,10.42
2017-11-15T21:55:51.092Z,10.42
2017-11-15T21:58:17.322Z,10.46
2017-11-15T22:00:43.556Z,10.47
2017-11-15T22:03:09.838Z,10.45
2017-11-15T22:05:36.089Z,10.41
2017-11-15T22:08:02.333Z,10.43
2017-11-15T22:10:28.599Z,10.44
2017-11-15T22:12:54.828Z,10.47
2017-11-15T22:15:21.061Z,10.48
2017-11-15T22:17:47.337Z,10.51
2017-11-15T22:20:13.585Z,10.53
2017-11-15T22:22:39.818Z,10.50
2017-11-15T22:25:06.091Z,10.54
2017-11-15T22:27:32.308Z,10.49
2017-11-15T22:29:58.532Z,10.44
2017-11-15T22:32:24.794Z,10.42
2017-11-15T22:34:51.021Z,10.41
2017-11-15T22:37:17.269Z,10.39
2017-11-15T22:39:43.533Z,10.40
2017-11-15T22:42:09.777Z,10.44
2017-11-15T22:44:36.037Z,10.48
2017-11-15T22:47:03.041Z,10.52
2017-11-15T22:49:29.285Z,10.57
2017-11-15T22:51:55.710Z,10.57
2017-11-15T22:54:21.986Z,10.59
2017-11-15T22:56:48.218Z,10.57
2017-11-15T22:59:14.456Z,10.54
2017-11-15T23:01:40.745Z,10.56
2017-11-15T23:04:06.983Z,10.61
2017-11-15T23:06:33.210Z,10.63
2017-11-15T23:08:59.470Z,10.57
2017-11-15T23:11:25.694Z,10.55
2017-11-15T23:13:51.940Z,10.62
2017-11-15T23:16:18.213Z,10.66
2017-11-15T23:18:44.438Z,10.66
2017-11-15T23:21:10.659Z,10.68
2017-11-15T23:23:36.918Z,10.64
2017-11-15T23:26:03.295Z,10.65
2017-11-15T23:28:29.513Z,10.63
2017-11-15T23:30:55.792Z,10.66
2017-11-15T23:33:22.042Z,10.70
2017-11-15T23:35:48.299Z,10.71
2017-11-15T23:38:14.576Z,10.70
2017-11-15T23:40:40.806Z,10.72
2017-11-15T23:43:07.115Z,10.75
2017-11-15T23:45:33.385Z,10.79
2017-11-15T23:47:59.610Z,10.82
2017-11-15T23:50:25.853Z,10.84
2017-11-15T23:52:52.255Z,10.82
2017-11-15T23:55:18.492Z,10.77
2017-11-15T23:57:44.888Z,10.73
